createdAt,value
2023-10-14T00:00:58.918Z,100279.94
2023-10-14T00:03:28.859Z,100286.06
2023-10-14T00:05:56.374Z,100296.28
2023-10-14T00:08:27.611Z,100295.00
2023-10-14T00:10:54.114Z,100298.28
2023-10-14T00:13:20.629Z,100324.97
2023-10-14T00:15:47.093Z,100336.06
2023-10-14T00:18:14.214Z,100348.75
2023-10-14T00:20:41.143Z,100360.03
2023-10-14T00:23:07.548Z,100377.88
2023-10-14T00:25:36.013Z,100371.28
2023-10-14T00:28:08.912Z,100366.25
2023-10-14T00:30:35.392Z,100370.50
2023-10-14T00:33:02.046Z,100378.63
2023-10-14T00:35:28.987Z,100379.56
2023-10-14T00:37:56.772Z,100384.88
2023-10-14T00:40:23.953Z,100392.59
2023-10-14T00:42:52.268Z,100412.13
2023-10-14T00:45:21.994Z,100413.06
2023-10-14T00:47:50.197Z,100420.41
2023-10-14T00:50:35.862Z,100429.81
2023-10-14T00:53:06.877Z,100435.13
2023-10-14T00:55:45.408Z,100438.41
2023-10-14T00:58:13.967Z,100437.63
2023-10-14T01:00:58.247Z,100447.31
2023-10-14T01:03:33.043Z,100456.25
2023-10-14T01:06:08.107Z,100455.47
2023-10-14T01:08:39.230Z,100468.13
2023-10-14T01:11:05.665Z,100468.72
2023-10-14T01:13:32.097Z,100481.97
2023-10-14T01:16:04.515Z,100485.25
2023-10-14T01:18:35.890Z,100478.06
2023-10-14T01:21:02.602Z,100493.84
2023-10-14T01:23:28.975Z,100500.72
2023-10-14T01:25:55.435Z,100506.81
2023-10-14T01:28:23.005Z,100509.66
2023-10-14T01:31:24.110Z,100510.44
2023-10-14T01:33:50.640Z,100514.16
2023-10-14T01:36:17.208Z,100521.38
2023-10-14T01:38:52.130Z,100521.03
2023-10-14T01:41:18.727Z,100518.69
2023-10-14T01:43:45.204Z,100530.09
2023-10-14T01:46:11.723Z,100540.69
2023-10-14T01:48:39.671Z,100540.81
2023-10-14T01:51:06.218Z,100547.03
2023-10-14T01:53:33.660Z,100546.53
2023-10-14T01:56:02.388Z,100547.66
2023-10-14T01:58:37.436Z,100550.63
2023-10-14T02:01:08.876Z,100563.69
2023-10-14T02:03:43.316Z,100559.88
2023-10-14T02:06:21.123Z,100577.81
2023-10-14T02:08:52.106Z,100586.03
2023-10-14T02:11:22.125Z,100591.78
2023-10-14T02:13:52.638Z,100598.31
2023-10-14T02:16:25.878Z,100599.22
2023-10-14T02:19:24.907Z,100605.31
2023-10-14T02:21:59.002Z,100619.84
2023-10-14T02:24:28.752Z,100616.00
2023-10-14T02:26:58.152Z,100628.28
2023-10-14T02:29:25.598Z,100628.41
2023-10-14T02:31:52.306Z,100646.19
2023-10-14T02:34:20.017Z,100644.38
2023-10-14T02:36:52.290Z,100647.88
2023-10-14T02:39:26.821Z,100656.41
2023-10-14T02:42:05.522Z,100663.50
2023-10-14T02:44:34.150Z,100672.13
2023-10-14T02:47:10.172Z,100676.72
2023-10-14T02:49:47.391Z,100687.41
2023-10-14T02:52:19.150Z,100699.66
2023-10-14T02:54:55.780Z,100700.19
2023-10-14T02:57:29.161Z,100711.19
2023-10-14T02:59:59.677Z,100721.72
2023-10-14T03:02:28.274Z,100720.31
2023-10-14T03:05:00.428Z,100725.34
2023-10-14T03:07:31.619Z,100731.06
2023-10-14T03:10:13.537Z,100735.97
2023-10-14T03:12:40.952Z,100746.63
2023-10-14T03:15:21.210Z,100751.91
2023-10-14T03:17:54.552Z,100769.19
2023-10-14T03:20:30.592Z,100774.09
2023-10-14T03:23:01.046Z,100779.00
2023-10-14T03:25:28.802Z,100783.94
2023-10-14T03:28:13.300Z,100790.06
2023-10-14T03:30:45.365Z,100793.84
2023-10-14T03:33:14.535Z,100803.91
2023-10-14T03:35:43.192Z,100807.59
2023-10-14T03:38:26.095Z,100819.63
2023-10-14T03:41:04.983Z,100824.09
2023-10-14T03:43:50.466Z,100825.78
2023-10-14T03:46:24.182Z,100821.44
2023-10-14T03:48:56.847Z,100834.28
2023-10-14T03:51:31.469Z,100840.56
2023-10-14T03:53:59.566Z,100839.00
2023-10-14T03:56:28.536Z,100843.81
2023-10-14T03:58:56.541Z,100838.28
2023-10-14T04:01:39.725Z,100853.63
2023-10-14T04:04:26.809Z,100851.78
2023-10-14T04:07:01.318Z,100853.88
2023-10-14T04:09:44.742Z,100860.34
2023-10-14T04:12:13.585Z,100875.63
2023-10-14T04:14:41.965Z,100874.03
2023-10-14T04:17:11.271Z,100884.47
2023-10-14T04:19:54.348Z,100895.78
2023-10-14T04:22:35.970Z,100894.59
2023-10-14T04:25:34.740Z,100894.25
2023-10-14T04:28:16.232Z,100895.97
2023-10-14T04:30:46.281Z,100901.66
2023-10-14T04:33:15.812Z,100908.91
2023-10-14T04:35:58.170Z,100911.81
2023-10-14T04:38:39.264Z,100917.06
2023-10-14T04:41:14.276Z,100921.88
2023-10-14T04:43:48.214Z,100921.50
2023-10-14T04:46:17.386Z,100922.81
2023-10-14T04:48:52.535Z,100930.13
2023-10-14T04:51:20.507Z,100943.78
2023-10-14T04:53:51.093Z,100948.66
2023-10-14T04:56:23.771Z,100951.09
2023-10-14T04:58:54.201Z,100957.56
2023-10-14T05:01:21.162Z,100965.63
2023-10-14T05:03:47.880Z,100965.25
2023-10-14T05:06:14.489Z,100976.47
2023-10-14T05:08:47.060Z,100980.88
2023-10-14T05:11:15.040Z,100986.47
2023-10-14T05:13:45.624Z,100990.47
2023-10-14T05:16:22.686Z,100985.72
2023-10-14T05:19:06.270Z,100998.16
2023-10-14T05:21:45.134Z,101002.97
2023-10-14T05:24:13.021Z,101005.41
2023-10-14T05:26:59.982Z,101007.06
2023-10-14T05:29:27.337Z,101015.91
2023-10-14T05:31:54.369Z,101009.13
2023-10-14T05:34:27.812Z,101021.97
2023-10-14T05:36:56.995Z,101029.19
2023-10-14T05:39:23.899Z,101021.28
2023-10-14T05:41:57.103Z,101030.91
2023-10-14T05:44:23.521Z,101036.53
2023-10-14T05:46:50.049Z,101041.31
2023-10-14T05:49:17.455Z,101040.56
2023-10-14T05:51:43.956Z,101046.97
2023-10-14T05:54:12.253Z,101045.41
2023-10-14T05:56:40.532Z,101055.88
2023-10-14T05:59:07.346Z,101063.91
2023-10-14T06:01:33.867Z,101064.75
2023-10-14T06:04:00.432Z,101076.81
2023-10-14T06:06:26.940Z,101080.47
2023-10-14T06:08:54.322Z,101085.69
2023-10-14T06:11:20.697Z,101094.84
2023-10-14T06:13:47.132Z,101104.06
2023-10-14T06:16:15.172Z,101108.13
2023-10-14T06:18:42.296Z,101113.34
2023-10-14T06:21:12.142Z,101111.78
2023-10-14T06:23:41.063Z,101117.00
2023-10-14T06:26:07.532Z,101121.00
2023-10-14T06:28:34.050Z,101122.59
2023-10-14T06:31:01.554Z,101129.41
2023-10-14T06:33:28.521Z,101142.63
2023-10-14T06:35:54.951Z,101149.00
2023-10-14T06:38:23.648Z,101151.81
2023-10-14T06:40:56.733Z,101155.47
2023-10-14T06:43:25.660Z,101159.06
2023-10-14T06:45:54.320Z,101165.09
2023-10-14T06:48:21.099Z,101169.03
2023-10-14T06:50:48.438Z,101175.03
2023-10-14T06:53:16.787Z,101176.63
2023-10-14T06:55:43.624Z,101179.44
2023-10-14T06:58:19.999Z,101194.63
2023-10-14T07:00:46.845Z,101199.03
2023-10-14T07:03:16.485Z,101198.63
2023-10-14T07:05:47.900Z,101205.00
2023-10-14T07:08:15.347Z,101206.56
2023-10-14T07:10:42.063Z,101213.31
2023-10-14T07:13:09.243Z,101215.28
2023-10-14T07:15:39.763Z,101227.25
2023-10-14T07:18:06.935Z,101222.03
2023-10-14T07:20:33.486Z,101221.97
2023-10-14T07:23:02.244Z,101230.34
2023-10-14T07:25:33.525Z,101219.09
2023-10-14T07:28:02.144Z,101223.84
2023-10-14T07:30:29.188Z,101236.59
2023-10-14T07:32:57.064Z,101235.75
2023-10-14T07:35:23.989Z,101242.56
2023-10-14T07:37:52.062Z,101253.72
2023-10-14T07:40:28.318Z,101254.47
2023-10-14T07:42:57.524Z,101264.00
2023-10-14T07:45:34.522Z,101266.78
2023-10-14T07:48:09.849Z,101268.31
2023-10-14T07:50:43.854Z,101276.25
2023-10-14T07:53:14.708Z,101279.81
2023-10-14T07:55:46.046Z,101279.75
2023-10-14T07:58:12.710Z,101282.88
2023-10-14T08:00:40.626Z,101300.06
2023-10-14T08:03:08.920Z,101290.38
2023-10-14T08:05:39.017Z,101294.31
2023-10-14T08:08:08.170Z,101301.47
2023-10-14T08:10:35.562Z,101299.41
2023-10-14T08:13:09.873Z,101302.94
2023-10-14T08:15:36.895Z,101309.69
2023-10-14T08:18:07.988Z,101306.81
2023-10-14T08:20:35.524Z,101310.78
2023-10-14T08:23:03.803Z,101310.72
2023-10-14T08:25:31.662Z,101321.09
2023-10-14T08:28:05.809Z,101321.41
2023-10-14T08:30:46.225Z,101322.16
2023-10-14T08:33:16.804Z,101328.06
2023-10-14T08:35:43.799Z,101335.63
2023-10-14T08:38:13.708Z,101333.09
2023-10-14T08:40:43.044Z,101341.03
2023-10-14T08:43:11.300Z,101342.94
2023-10-14T08:45:43.091Z,101347.25
2023-10-14T08:48:10.044Z,101343.53
2023-10-14T08:50:37.237Z,101353.47
2023-10-14T08:53:06.534Z,101351.78
2023-10-14T08:55:34.908Z,101351.63
2023-10-14T08:58:13.801Z,101355.16
2023-10-14T09:00:44.937Z,101368.66
2023-10-14T09:03:12.934Z,101362.91
2023-10-14T09:05:41.358Z,101365.94
2023-10-14T09:08:10.250Z,101368.97
2023-10-14T09:10:38.144Z,101374.47
2023-10-14T09:13:09.267Z,101375.13
2023-10-14T09:15:40.373Z,101377.34
2023-10-14T09:18:20.282Z,101378.03
2023-10-14T09:20:55.751Z,101374.72
2023-10-14T09:23:38.662Z,101382.56
2023-10-14T09:26:05.672Z,101382.44
2023-10-14T09:28:37.285Z,101387.03
2023-10-14T09:31:08.992Z,101386.16
2023-10-14T09:33:38.274Z,101389.81
2023-10-14T09:36:12.635Z,101389.59
2023-10-14T09:38:40.835Z,101395.63
2023-10-14T09:41:09.077Z,101388.75
2023-10-14T09:43:40.665Z,101398.00
2023-10-14T09:46:12.578Z,101393.69
2023-10-14T09:48:41.480Z,101412.69
2023-10-14T09:51:08.977Z,101415.31
2023-10-14T09:53:37.521Z,101420.06
2023-10-14T09:56:08.739Z,101428.81
2023-10-14T09:58:37.048Z,101434.28
2023-10-14T10:01:08.062Z,101442.53
2023-10-14T10:03:46.402Z,101435.50
2023-10-14T10:06:36.756Z,101436.00
2023-10-14T10:09:30.820Z,101443.97
2023-10-14T10:11:59.358Z,101446.06
2023-10-14T10:14:26.849Z,101436.41
2023-10-14T10:16:54.746Z,101438.47
2023-10-14T10:19:24.844Z,101435.59
2023-10-14T10:22:14.316Z,101443.28
2023-10-14T10:24:46.522Z,101443.34
2023-10-14T10:27:13.958Z,101432.78
2023-10-14T10:29:48.983Z,101446.09
2023-10-14T10:32:22.428Z,101454.34
2023-10-14T10:35:07.478Z,101448.72
2023-10-14T10:37:40.713Z,101451.97
2023-10-14T10:40:13.821Z,101466.84
2023-10-14T10:43:11.048Z,101483.34
2023-10-14T10:45:41.458Z,101486.66
2023-10-14T10:48:12.039Z,101483.81
2023-10-14T10:50:40.458Z,101486.63
2023-10-14T10:53:06.921Z,101489.22
2023-10-14T10:55:37.648Z,101477.31
2023-10-14T10:58:06.188Z,101485.44
2023-10-14T11:00:33.964Z,101487.63
2023-10-14T11:03:02.263Z,101491.69
2023-10-14T11:05:31.082Z,101497.59
2023-10-14T11:07:58.328Z,101488.25
2023-10-14T11:10:26.833Z,101480.59
2023-10-14T11:12:55.871Z,101478.41
2023-10-14T11:15:23.980Z,101471.63
2023-10-14T11:17:58.102Z,101471.94
2023-10-14T11:20:32.946Z,101466.56
2023-10-14T11:23:00.829Z,101477.00
2023-10-14T11:25:31.827Z,101471.25
2023-10-14T11:27:59.125Z,101477.72
2023-10-14T11:30:30.277Z,101480.72
2023-10-14T11:33:00.352Z,101487.19
2023-10-14T11:35:31.198Z,101484.72
2023-10-14T11:38:05.017Z,101495.16
2023-10-14T11:40:39.605Z,101512.47
2023-10-14T11:43:06.262Z,101518.75
2023-10-14T11:45:33.051Z,101528.97
2023-10-14T11:48:01.416Z,101534.47
2023-10-14T11:50:31.444Z,101525.53
2023-10-14T11:52:58.833Z,101532.13
2023-10-14T11:55:27.066Z,101527.09
2023-10-14T11:57:55.134Z,101533.16
2023-10-14T12:00:22.711Z,101537.91
2023-10-14T12:02:49.481Z,101524.19
2023-10-14T12:05:17.857Z,101527.16
2023-10-14T12:07:45.805Z,101526.19
2023-10-14T12:10:12.445Z,101527.69
2023-10-14T12:12:39.202Z,101532.38
2023-10-14T12:15:09.688Z,101534.69
2023-10-14T12:17:39.473Z,101528.88
2023-10-14T12:20:11.484Z,101538.41
2023-10-14T12:22:42.846Z,101535.94
2023-10-14T12:25:10.097Z,101534.00
2023-10-14T12:27:36.899Z,101553.38
2023-10-14T12:30:03.967Z,101572.56
2023-10-14T12:32:33.917Z,101562.63
2023-10-14T12:35:00.701Z,101572.75
2023-10-14T12:37:29.786Z,101566.41
2023-10-14T12:40:05.777Z,101575.84
2023-10-14T12:42:46.441Z,101574.69
2023-10-14T12:45:23.816Z,101582.84
2023-10-14T12:47:50.709Z,101600.09
2023-10-14T12:50:21.118Z,101610.63
2023-10-14T12:53:00.230Z,101595.56
2023-10-14T12:55:27.477Z,101593.31
2023-10-14T12:57:55.296Z,101591.41
2023-10-14T13:00:30.396Z,101592.63
2023-10-14T13:03:01.130Z,101595.56
2023-10-14T13:05:28.817Z,101604.97
2023-10-14T13:07:57.529Z,101601.13
2023-10-14T13:10:25.803Z,101604.81
2023-10-14T13:12:54.336Z,101599.66
2023-10-14T13:15:29.713Z,101608.38
2023-10-14T13:17:57.614Z,101608.50
2023-10-14T13:20:27.300Z,101615.13
2023-10-14T13:22:59.567Z,101628.09
2023-10-14T13:25:26.756Z,101637.19
2023-10-14T13:27:53.781Z,101626.91
2023-10-14T13:30:23.961Z,101626.75
2023-10-14T13:32:55.287Z,101630.63
2023-10-14T13:35:22.029Z,101633.31
2023-10-14T13:37:49.212Z,101636.06
2023-10-14T13:40:37.724Z,101636.22
2023-10-14T13:43:07.777Z,101641.19
2023-10-14T13:45:34.910Z,101643.59
2023-10-14T13:48:07.595Z,101646.88
2023-10-14T13:50:40.752Z,101654.94
2023-10-14T13:53:22.241Z,101650.53
2023-10-14T13:55:55.470Z,101651.66
2023-10-14T13:58:24.750Z,101657.56
2023-10-14T14:00:51.523Z,101660.34
2023-10-14T14:03:20.175Z,101655.91
2023-10-14T14:05:52.567Z,101663.09
2023-10-14T14:08:20.273Z,101650.66
2023-10-14T14:10:46.959Z,101659.53
2023-10-14T14:13:21.521Z,101667.88
2023-10-14T14:15:48.837Z,101670.13
2023-10-14T14:18:16.299Z,101672.19
2023-10-14T14:20:42.881Z,101674.66
2023-10-14T14:23:10.098Z,101672.22
2023-10-14T14:25:38.164Z,101678.56
2023-10-14T14:28:05.202Z,101679.81
2023-10-14T14:30:32.405Z,101681.84
2023-10-14T14:32:59.320Z,101681.94
2023-10-14T14:35:31.396Z,101689.16
2023-10-14T14:37:59.423Z,101697.22
2023-10-14T14:40:28.195Z,101694.88
2023-10-14T14:42:58.792Z,101703.66
2023-10-14T14:45:28.641Z,101708.84
2023-10-14T14:48:00.054Z,101705.16
2023-10-14T14:50:30.239Z,101703.53
2023-10-14T14:52:58.753Z,101703.34
2023-10-14T14:55:26.498Z,101705.72
2023-10-14T14:57:55.291Z,101696.03
2023-10-14T15:00:29.051Z,101710.00
2023-10-14T15:03:01.461Z,101706.50
2023-10-14T15:05:53.257Z,101713.44
2023-10-14T15:08:19.799Z,101716.72
2023-10-14T15:10:46.718Z,101717.19
2023-10-14T15:13:15.876Z,101723.66
2023-10-14T15:15:43.313Z,101728.06
2023-10-14T15:18:11.339Z,101719.69
2023-10-14T15:20:39.162Z,101732.22
2023-10-14T15:23:08.592Z,101728.28
2023-10-14T15:25:37.941Z,101727.50
2023-10-14T15:28:08.692Z,101733.56
2023-10-14T15:30:39.388Z,101733.59
2023-10-14T15:33:11.070Z,101735.97
2023-10-14T15:35:38.630Z,101733.16
2023-10-14T15:38:09.180Z,101729.94
2023-10-14T15:40:36.744Z,101741.56
2023-10-14T15:43:06.188Z,101739.91
2023-10-14T15:45:36.449Z,101741.56
2023-10-14T15:48:12.714Z,101749.56
2023-10-14T15:50:45.648Z,101739.59
2023-10-14T15:53:13.229Z,101739.28
2023-10-14T15:55:40.226Z,101742.50
2023-10-14T15:58:07.273Z,101738.94
2023-10-14T16:00:36.557Z,101741.78
2023-10-14T16:03:11.625Z,101740.59
2023-10-14T16:05:39.941Z,101751.06
2023-10-14T16:08:08.108Z,101754.31
2023-10-14T16:10:41.197Z,101751.94
2023-10-14T16:13:08.789Z,101753.56
2023-10-14T16:15:36.480Z,101754.81
2023-10-14T16:20:31.446Z,101772.13
2023-10-14T16:23:00.820Z,101775.41
2023-10-14T16:25:27.382Z,101779.44
2023-10-14T16:27:54.876Z,101773.47
2023-10-14T16:30:23.048Z,101775.94
2023-10-14T16:32:51.982Z,101779.19
2023-10-14T16:35:20.551Z,101782.06
2023-10-14T16:37:49.117Z,101788.09
2023-10-14T16:40:19.541Z,101792.94
2023-10-14T16:42:57.508Z,101792.94
2023-10-14T16:45:23.928Z,101797.38
2023-10-14T16:47:53.090Z,101795.41
2023-10-14T16:50:25.663Z,101803.84
2023-10-14T16:52:54.387Z,101809.06
2023-10-14T16:55:22.983Z,101812.69
2023-10-14T16:57:51.120Z,101814.31
2023-10-14T17:00:24.014Z,101816.34
2023-10-14T17:02:56.268Z,101825.56
2023-10-14T17:05:24.182Z,101832.38
2023-10-14T17:07:54.892Z,101838.81
2023-10-14T17:10:26.895Z,101843.22
2023-10-14T17:12:55.016Z,101836.81
2023-10-14T17:15:25.643Z,101841.25
2023-10-14T17:17:53.834Z,101846.47
2023-10-14T17:20:22.102Z,101848.47
2023-10-14T17:22:56.389Z,101857.28
2023-10-14T17:25:27.905Z,101852.88
2023-10-14T17:27:56.792Z,101860.91
2023-10-14T17:30:28.317Z,101863.31
2023-10-14T17:32:56.879Z,101858.91
2023-10-14T17:35:24.019Z,101854.53
2023-10-14T17:37:52.042Z,101860.94
2023-10-14T17:40:20.187Z,101863.31
2023-10-14T17:42:54.822Z,101874.13
2023-10-14T17:45:27.696Z,101861.72
2023-10-14T17:47:55.846Z,101873.31
2023-10-14T17:50:23.249Z,101870.91
2023-10-14T17:52:52.804Z,101879.72
2023-10-14T17:55:20.137Z,101875.72
2023-10-14T17:57:47.244Z,101880.53
2023-10-14T18:00:26.348Z,101880.53
2023-10-14T18:02:57.354Z,101882.13
2023-10-14T18:05:25.638Z,101884.53
2023-10-14T18:07:56.481Z,101886.50
2023-10-14T18:10:23.270Z,101896.91
2023-10-14T18:12:49.727Z,101886.50
2023-10-14T18:15:17.477Z,101887.66
2023-10-14T18:17:46.413Z,101899.25
2023-10-14T18:20:17.601Z,101895.66
2023-10-14T18:22:48.987Z,101909.22
2023-10-14T18:25:17.719Z,101906.81
2023-10-14T18:27:44.650Z,101910.41
2023-10-14T18:30:18.213Z,101917.56
2023-10-14T18:32:45.864Z,101923.94
2023-10-14T18:35:17.373Z,101916.72
2023-10-14T18:37:45.638Z,101927.50
2023-10-14T18:40:17.141Z,101913.91
2023-10-14T18:42:45.574Z,101924.28
2023-10-14T18:45:22.407Z,101926.72
2023-10-14T18:47:53.980Z,101920.28
2023-10-14T18:50:23.812Z,101923.47
2023-10-14T18:52:51.925Z,101921.84
2023-10-14T18:55:27.725Z,101927.44
2023-10-14T18:57:56.021Z,101932.25
2023-10-14T19:00:24.444Z,101930.22
2023-10-14T19:02:56.997Z,101929.03
2023-10-14T19:05:30.008Z,101924.22
2023-10-14T19:07:57.967Z,101924.59
2023-10-14T19:10:25.308Z,101922.19
2023-10-14T19:12:54.630Z,101929.78
2023-10-14T19:15:23.639Z,101923.78
2023-10-14T19:17:50.677Z,101924.19
2023-10-14T19:20:17.180Z,101928.56
2023-10-14T19:23:10.850Z,101927.38
2023-10-14T19:25:39.025Z,101929.69
2023-10-14T19:28:10.597Z,101928.06
2023-10-14T19:30:41.057Z,101929.22
2023-10-14T19:33:09.320Z,101926.44
2023-10-14T19:35:43.116Z,101934.81
2023-10-14T19:38:11.530Z,101929.22
2023-10-14T19:40:40.105Z,101932.03
2023-10-14T19:43:07.151Z,101938.00
2023-10-14T19:45:33.959Z,101929.63
2023-10-14T19:48:00.496Z,101928.47
2023-10-14T19:50:33.360Z,101934.81
2023-10-14T19:52:59.807Z,101932.78
2023-10-14T19:55:29.287Z,101931.97
2023-10-14T19:57:58.831Z,101939.91
2023-10-14T20:00:28.575Z,101939.06
2023-10-14T20:03:05.292Z,101946.25
2023-10-14T20:05:39.798Z,101942.69
2023-10-14T20:08:13.344Z,101951.88
2023-10-14T20:10:40.807Z,101949.44
2023-10-14T20:13:16.283Z,101947.44
2023-10-14T20:15:44.447Z,101956.19
2023-10-14T20:18:16.019Z,101953.38
2023-10-14T20:20:44.368Z,101958.19
2023-10-14T20:23:12.891Z,101955.78
2023-10-14T20:25:43.862Z,101966.94
2023-10-14T20:28:17.165Z,101955.75
2023-10-14T20:30:48.241Z,101958.94
2023-10-14T20:33:18.814Z,101950.13
2023-10-14T20:35:46.212Z,101948.50
2023-10-14T20:38:13.825Z,101958.41
2023-10-14T20:40:44.978Z,101952.81
2023-10-14T20:43:11.980Z,101958.75
2023-10-14T20:45:41.310Z,101955.13
2023-10-14T20:48:08.696Z,101961.13
2023-10-14T20:50:38.490Z,101962.69
2023-10-14T20:53:06.061Z,101960.25
2023-10-14T20:55:33.156Z,101957.81
2023-10-14T20:58:05.244Z,101959.81
2023-10-14T21:00:35.568Z,101955.41
2023-10-14T21:03:10.890Z,101951.81
2023-10-14T21:05:42.287Z,101954.19
2023-10-14T21:08:17.324Z,101954.53
2023-10-14T21:10:48.082Z,101955.69
2023-10-14T21:13:18.587Z,101954.47
2023-10-14T21:15:46.521Z,101948.09
2023-10-14T21:18:17.737Z,101952.06
2023-10-14T21:20:47.741Z,101950.03
2023-10-14T21:23:19.794Z,101945.66
2023-10-14T21:25:48.020Z,101953.28
2023-10-14T21:28:15.132Z,101950.88
2023-10-14T21:30:41.648Z,101947.28
2023-10-14T21:33:08.134Z,101944.91
2023-10-14T21:35:36.138Z,101945.75
2023-10-14T21:38:03.636Z,101942.97
2023-10-14T21:40:31.825Z,101940.22
2023-10-14T21:42:59.243Z,101938.66
2023-10-14T21:45:30.823Z,101934.72
2023-10-14T21:47:57.420Z,101939.16
2023-10-14T21:50:27.490Z,101965.56
2023-10-14T21:52:54.037Z,102018.66
2023-10-14T21:55:24.177Z,102021.44
2023-10-14T21:57:54.956Z,102010.28
2023-10-14T22:00:22.998Z,102003.94
2023-10-14T22:02:51.048Z,102003.56
2023-10-14T22:05:20.908Z,101997.16
2023-10-14T22:07:48.894Z,101962.91
2023-10-14T22:10:20.331Z,101953.38
2023-10-14T22:12:59.378Z,101949.00
2023-10-14T22:15:29.016Z,101955.81
2023-10-14T22:17:57.015Z,101954.63
2023-10-14T22:20:23.883Z,101956.59
2023-10-14T22:22:51.365Z,101940.63
2023-10-14T22:25:18.642Z,101944.63
2023-10-14T22:27:48.456Z,101920.22
2023-10-14T22:30:15.813Z,101921.44
2023-10-14T22:32:48.599Z,101917.84
2023-10-14T22:35:16.457Z,101924.66
2023-10-14T22:37:43.671Z,101924.66
2023-10-14T22:40:17.264Z,101955.00
2023-10-14T22:42:44.488Z,102014.13
2023-10-14T22:45:12.129Z,102033.66
2023-10-14T22:47:41.464Z,102042.06
2023-10-14T22:50:11.734Z,102032.34
2023-10-14T22:52:39.353Z,102031.47
2023-10-14T22:55:10.890Z,102026.69
2023-10-14T22:57:39.230Z,102025.09
2023-10-14T23:00:15.895Z,102017.13
2023-10-14T23:02:46.992Z,102020.75
2023-10-14T23:05:23.508Z,102010.75
2023-10-14T23:07:50.624Z,102004.78
2023-10-14T23:10:20.534Z,102004.41
2023-10-14T23:12:51.195Z,102007.63
2023-10-14T23:15:18.761Z,101995.63
2023-10-14T23:17:47.158Z,101998.81
2023-10-14T23:20:16.910Z,101992.84
2023-10-14T23:22:44.301Z,101989.69
2023-10-14T23:25:14.607Z,101980.09
2023-10-14T23:27:44.440Z,101982.88
2023-10-14T23:30:19.951Z,101995.28
2023-10-14T23:32:48.542Z,102003.69
2023-10-14T23:35:24.489Z,102012.50
2023-10-14T23:37:59.225Z,102009.66
2023-10-14T23:40:31.272Z,102008.47
2023-10-14T23:43:02.755Z,102003.66
2023-10-14T23:45:32.194Z,102002.38
2023-10-14T23:47:59.245Z,102013.91
2023-10-14T23:50:26.063Z,102013.53
2023-10-14T23:52:53.310Z,102013.97
2023-10-14T23:55:22.389Z,102014.75
2023-10-14T23:57:49.835Z,102023.13
